createdAt,value
2018-07-26T00:01:36.173Z,23.95
2018-07-26T00:04:04.450Z,23.94
2018-07-26T00:06:32.698Z,24.01
2018-07-26T00:09:01.278Z,23.89
2018-07-26T00:11:29.581Z,24.04
2018-07-26T00:13:57.852Z,23.71
2018-07-26T00:16:26.110Z,23.71
2018-07-26T00:18:54.400Z,23.65
2018-07-26T00:21:22.767Z,23.66
2018-07-26T00:23:51.072Z,23.66
2018-07-26T00:26:19.422Z,23.63
2018-07-26T00:28:47.688Z,23.51
2018-07-26T00:31:15.980Z,23.61
2018-07-26T00:33:44.243Z,23.59
2018-07-26T00:36:12.531Z,23.44
2018-07-26T00:38:40.836Z,23.60
2018-07-26T00:41:09.209Z,23.38
2018-07-26T00:43:37.563Z,23.34
2018-07-26T00:46:06.087Z,23.27
2018-07-26T00:48:34.340Z,23.36
2018-07-26T00:51:02.627Z,23.18
2018-07-26T00:53:30.867Z,23.16
2018-07-26T00:55:59.130Z,23.24
2018-07-26T00:58:27.459Z,23.36
2018-07-26T01:00:55.737Z,23.31
2018-07-26T01:03:24.057Z,23.23
2018-07-26T01:05:52.347Z,23.22
2018-07-26T01:08:20.779Z,23.15
2018-07-26T01:10:49.051Z,23.35
2018-07-26T01:13:17.302Z,23.24
2018-07-26T01:15:45.603Z,23.17
2018-07-26T01:18:13.900Z,23.02
2018-07-26T01:20:42.202Z,23.08
2018-07-26T01:23:10.469Z,22.95
2018-07-26T01:25:38.796Z,22.81
2018-07-26T01:28:07.090Z,22.78
2018-07-26T01:30:35.368Z,22.61
2018-07-26T01:33:03.807Z,22.57
2018-07-26T01:35:32.071Z,22.46
2018-07-26T01:38:00.421Z,22.20
2018-07-26T01:40:28.717Z,22.19
2018-07-26T01:43:08.609Z,22.19
2018-07-26T01:45:36.946Z,22.30
2018-07-26T01:48:05.470Z,22.22
2018-07-26T01:50:33.767Z,22.28
2018-07-26T01:53:02.419Z,22.18
2018-07-26T01:55:30.705Z,22.15
2018-07-26T01:57:59.014Z,21.96
2018-07-26T02:00:27.288Z,21.95
2018-07-26T02:02:55.579Z,22.00
2018-07-26T02:05:23.842Z,21.74
2018-07-26T02:07:52.159Z,21.71
2018-07-26T02:10:20.403Z,21.66
2018-07-26T02:12:48.700Z,21.64
2018-07-26T02:15:17.138Z,21.68
2018-07-26T02:17:45.418Z,21.43
2018-07-26T02:20:13.700Z,21.40
2018-07-26T02:22:42.002Z,21.54
2018-07-26T02:25:10.260Z,21.43
2018-07-26T02:27:38.574Z,21.31
2018-07-26T02:30:06.824Z,21.40
2018-07-26T02:32:35.221Z,21.28
2018-07-26T02:35:03.531Z,21.22
2018-07-26T02:37:31.814Z,21.15
2018-07-26T02:40:00.153Z,21.25
2018-07-26T02:42:28.418Z,21.08
2018-07-26T02:44:56.772Z,21.05
2018-07-26T02:47:25.130Z,20.99
2018-07-26T02:49:53.460Z,20.98
2018-07-26T02:52:21.719Z,21.05
2018-07-26T02:54:50.346Z,21.02
2018-07-26T02:57:18.685Z,20.85
2018-07-26T02:59:46.965Z,21.00
2018-07-26T03:02:15.290Z,20.87
2018-07-26T03:04:43.552Z,21.12
2018-07-26T03:07:11.877Z,21.04
2018-07-26T03:09:40.233Z,20.76
2018-07-26T03:12:08.528Z,20.74
2018-07-26T03:14:42.885Z,20.81
2018-07-26T03:17:11.751Z,20.86
2018-07-26T03:19:40.039Z,20.81
2018-07-26T03:22:08.447Z,20.76
2018-07-26T03:24:37.320Z,20.60
2018-07-26T03:27:05.662Z,20.61
2018-07-26T03:29:33.953Z,20.62
2018-07-26T03:32:02.272Z,20.65
2018-07-26T03:34:30.596Z,20.56
2018-07-26T03:36:58.875Z,20.54
2018-07-26T03:39:27.185Z,20.48
2018-07-26T03:41:55.591Z,20.41
2018-07-26T03:44:23.842Z,20.43
2018-07-26T03:46:52.162Z,20.40
2018-07-26T03:49:20.643Z,20.43
2018-07-26T03:51:48.913Z,20.56
2018-07-26T03:54:17.173Z,20.46
2018-07-26T03:56:45.527Z,20.59
2018-07-26T03:59:13.809Z,20.56
2018-07-26T04:01:42.078Z,20.44
2018-07-26T04:04:11.186Z,20.54
2018-07-26T04:06:39.524Z,20.58
2018-07-26T04:09:09.772Z,20.53
2018-07-26T04:11:38.057Z,20.54
2018-07-26T04:14:06.425Z,20.65
2018-07-26T04:16:34.679Z,20.55
2018-07-26T04:19:02.968Z,20.60
2018-07-26T04:21:31.295Z,20.59
2018-07-26T04:24:00.351Z,20.59
2018-07-26T04:26:28.829Z,20.61
2018-07-26T04:28:57.128Z,20.64
2018-07-26T04:31:25.439Z,20.48
2018-07-26T04:33:53.715Z,20.55
2018-07-26T04:36:21.999Z,20.60
2018-07-26T04:38:50.304Z,20.68
2018-07-26T04:41:18.815Z,20.69
2018-07-26T04:43:47.162Z,20.67
2018-07-26T04:46:15.439Z,20.92
2018-07-26T04:48:43.779Z,20.96
2018-07-26T04:51:12.051Z,20.96
2018-07-26T04:53:40.391Z,20.96
2018-07-26T04:56:08.640Z,20.93
2018-07-26T04:58:37.020Z,21.08
2018-07-26T05:01:05.373Z,21.21
2018-07-26T05:03:33.667Z,21.24
2018-07-26T05:06:01.963Z,21.42
2018-07-26T05:08:30.259Z,21.50
2018-07-26T05:10:58.554Z,21.74
2018-07-26T05:13:26.805Z,21.81
2018-07-26T05:15:55.138Z,21.96
2018-07-26T05:18:23.400Z,22.15
2018-07-26T05:20:51.686Z,22.37
2018-07-26T05:23:20.085Z,22.52
2018-07-26T05:25:48.421Z,22.81
2018-07-26T05:28:16.749Z,22.87
2018-07-26T05:30:45.037Z,23.15
2018-07-26T05:33:13.308Z,23.07
2018-07-26T05:35:41.612Z,23.22
2018-07-26T05:38:09.889Z,23.56
2018-07-26T05:40:38.176Z,23.70
2018-07-26T05:43:06.586Z,23.88
2018-07-26T05:45:34.828Z,23.93
2018-07-26T05:48:03.202Z,24.20
2018-07-26T05:50:31.451Z,24.32
2018-07-26T05:52:59.766Z,24.01
2018-07-26T05:55:28.018Z,24.19
2018-07-26T05:57:56.340Z,24.28
2018-07-26T06:00:24.654Z,24.21
2018-07-26T06:02:52.967Z,24.27
2018-07-26T06:05:21.258Z,23.94
2018-07-26T06:07:49.509Z,24.17
2018-07-26T06:10:17.792Z,24.20
2018-07-26T06:12:46.109Z,24.27
2018-07-26T06:15:14.378Z,24.38
2018-07-26T06:17:42.742Z,24.51
2018-07-26T06:20:12.314Z,24.47
2018-07-26T06:22:40.966Z,24.45
2018-07-26T06:25:09.914Z,24.71
2018-07-26T06:27:38.248Z,24.81
2018-07-26T06:30:08.963Z,24.72
2018-07-26T06:32:37.258Z,24.75
2018-07-26T06:35:06.047Z,24.95
2018-07-26T06:37:34.341Z,25.24
2018-07-26T06:40:02.604Z,25.30
2018-07-26T06:42:30.854Z,25.20
2018-07-26T06:44:59.214Z,25.22
2018-07-26T06:47:27.523Z,25.11
2018-07-26T06:49:55.833Z,25.15
2018-07-26T06:52:24.115Z,25.40
2018-07-26T06:54:52.447Z,25.46
2018-07-26T06:57:20.784Z,25.53
2018-07-26T06:59:49.085Z,25.60
2018-07-26T07:02:17.407Z,25.78
2018-07-26T07:04:45.674Z,25.93
2018-07-26T07:07:14.316Z,26.02
2018-07-26T07:09:42.638Z,26.02
2018-07-26T07:12:11.023Z,26.27
2018-07-26T07:14:39.672Z,26.29
2018-07-26T07:17:08.337Z,26.40
2018-07-26T07:19:36.617Z,26.63
2018-07-26T07:22:04.996Z,26.83
2018-07-26T07:24:33.367Z,26.87
2018-07-26T07:27:01.742Z,26.95
2018-07-26T07:29:31.132Z,26.98
2018-07-26T07:31:59.661Z,27.01
2018-07-26T07:34:27.903Z,27.06
2018-07-26T07:36:56.205Z,27.33
2018-07-26T07:39:24.497Z,27.48
2018-07-26T07:41:52.858Z,27.50
2018-07-26T07:44:21.167Z,27.59
2018-07-26T07:46:49.426Z,27.81
2018-07-26T07:49:17.699Z,27.63
2018-07-26T07:51:46.009Z,28.14
2018-07-26T07:54:14.278Z,28.05
2018-07-26T07:56:42.665Z,28.26
2018-07-26T07:59:10.972Z,28.42
2018-07-26T08:01:39.249Z,28.70
2018-07-26T08:04:07.535Z,28.64
2018-07-26T08:06:35.815Z,28.63
2018-07-26T08:09:06.311Z,28.65
2018-07-26T08:11:34.588Z,28.67
2018-07-26T08:14:02.858Z,28.89
2018-07-26T08:16:31.277Z,28.87
2018-07-26T08:18:59.555Z,29.09
2018-07-26T08:21:27.822Z,29.00
2018-07-26T08:23:56.157Z,29.39
2018-07-26T08:26:24.437Z,29.32
2018-07-26T08:28:52.714Z,29.47
2018-07-26T08:31:21.020Z,29.13
2018-07-26T08:33:49.284Z,29.24
2018-07-26T08:36:17.565Z,29.50
2018-07-26T08:38:45.837Z,29.58
2018-07-26T08:41:14.172Z,29.63
2018-07-26T08:43:42.488Z,29.57
2018-07-26T08:46:10.804Z,29.56
2018-07-26T08:48:39.121Z,29.73
2018-07-26T08:51:07.486Z,29.84
2018-07-26T08:53:35.764Z,29.98
2018-07-26T08:56:04.025Z,30.07
2018-07-26T08:58:32.371Z,30.30
2018-07-26T09:01:00.949Z,30.35
2018-07-26T09:03:29.206Z,30.49
2018-07-26T09:05:57.743Z,30.39
2018-07-26T09:08:26.129Z,30.58
2018-07-26T09:10:54.510Z,30.69
2018-07-26T09:13:22.761Z,30.72
2018-07-26T09:15:51.253Z,31.00
2018-07-26T09:18:19.519Z,31.00
2018-07-26T09:20:47.781Z,31.35
2018-07-26T09:23:16.330Z,31.51
2018-07-26T09:25:44.596Z,31.69
2018-07-26T09:28:13.024Z,31.74
2018-07-26T09:30:41.350Z,31.65
2018-07-26T09:33:09.720Z,32.18
2018-07-26T09:35:38.006Z,32.45
2018-07-26T09:38:06.340Z,32.62
2018-07-26T09:40:34.640Z,32.66
2018-07-26T09:43:03.171Z,32.79
2018-07-26T09:45:31.983Z,32.84
2018-07-26T09:48:00.257Z,33.10
2018-07-26T09:50:28.662Z,33.14
2018-07-26T09:52:56.953Z,33.19
2018-07-26T09:55:25.244Z,33.33
2018-07-26T09:57:53.576Z,33.55
2018-07-26T10:00:27.289Z,33.51
2018-07-26T10:02:55.569Z,33.49
2018-07-26T10:05:23.830Z,33.71
2018-07-26T10:07:52.127Z,34.04
2018-07-26T10:10:20.645Z,33.93
2018-07-26T10:12:48.982Z,34.20
2018-07-26T10:15:17.304Z,34.01
2018-07-26T10:17:45.571Z,34.20
2018-07-26T10:20:14.160Z,34.08
2018-07-26T10:22:42.486Z,34.32
2018-07-26T10:25:10.935Z,34.37
2018-07-26T10:27:39.297Z,34.57
2018-07-26T10:30:08.593Z,34.61
2018-07-26T10:32:36.868Z,34.40
2018-07-26T10:35:05.228Z,34.49
2018-07-26T10:37:33.537Z,34.63
2018-07-26T10:40:02.204Z,34.67
2018-07-26T10:42:30.538Z,34.61
2018-07-26T10:44:58.929Z,34.41
2018-07-26T10:47:27.391Z,34.64
2018-07-26T10:49:55.706Z,34.62
2018-07-26T10:52:24.016Z,34.65
2018-07-26T10:54:52.371Z,35.07
2018-07-26T10:57:20.678Z,35.15
2018-07-26T10:59:48.980Z,35.07
2018-07-26T11:02:17.278Z,35.21
2018-07-26T11:04:45.630Z,35.28
2018-07-26T11:07:13.976Z,35.25
2018-07-26T11:09:42.699Z,35.34
2018-07-26T11:12:11.017Z,35.56
2018-07-26T11:14:39.601Z,35.82
2018-07-26T11:17:07.896Z,35.62
2018-07-26T11:19:36.193Z,35.80
2018-07-26T11:22:04.576Z,36.12
2018-07-26T11:24:32.901Z,35.64
2018-07-26T11:27:01.174Z,35.76
2018-07-26T11:29:29.570Z,35.95
2018-07-26T11:31:57.856Z,35.74
2018-07-26T11:34:26.160Z,35.67
2018-07-26T11:36:54.732Z,35.32
2018-07-26T11:39:22.832Z,35.36
2018-07-26T11:41:51.297Z,35.86
2018-07-26T11:44:19.571Z,35.85
2018-07-26T11:46:47.891Z,36.13
2018-07-26T11:49:16.598Z,36.05
2018-07-26T11:51:44.949Z,36.52
2018-07-26T11:54:13.365Z,36.33
2018-07-26T11:56:41.713Z,36.55
2018-07-26T11:59:10.052Z,36.71
2018-07-26T12:01:38.391Z,36.87
2018-07-26T12:04:06.752Z,36.86
2018-07-26T12:06:35.049Z,37.18
2018-07-26T12:09:03.444Z,37.13
2018-07-26T12:11:31.798Z,37.38
2018-07-26T12:14:00.283Z,37.58
2018-07-26T12:16:28.589Z,37.23
2018-07-26T12:18:56.906Z,37.39
2018-07-26T12:21:25.241Z,37.20
2018-07-26T12:23:53.608Z,36.95
2018-07-26T12:26:22.026Z,37.71
2018-07-26T12:28:50.319Z,37.56
2018-07-26T12:31:18.710Z,38.16
2018-07-26T12:33:47.007Z,37.78
2018-07-26T12:36:15.331Z,38.48
2018-07-26T12:38:44.149Z,38.73
2018-07-26T12:41:12.475Z,38.64
2018-07-26T12:43:40.813Z,38.63
2018-07-26T12:46:09.203Z,39.48
2018-07-26T12:48:37.540Z,39.32
2018-07-26T12:51:05.832Z,39.78
2018-07-26T12:53:34.185Z,39.74
2018-07-26T12:56:02.457Z,41.00
2018-07-26T12:58:30.793Z,39.53
2018-07-26T13:00:59.124Z,39.46
2018-07-26T13:03:27.416Z,39.77
2018-07-26T13:05:55.702Z,39.29
2018-07-26T13:08:24.029Z,38.43
2018-07-26T13:10:52.641Z,38.19
2018-07-26T13:13:20.993Z,39.23
2018-07-26T13:15:49.265Z,39.42
2018-07-26T13:18:17.580Z,40.79
2018-07-26T13:20:45.907Z,40.44
2018-07-26T13:23:14.203Z,41.11
2018-07-26T13:25:42.579Z,40.50
2018-07-26T13:28:10.977Z,39.87
2018-07-26T13:30:39.299Z,40.35
2018-07-26T13:33:07.701Z,39.09
2018-07-26T13:35:36.001Z,40.25
2018-07-26T13:38:04.401Z,39.58
2018-07-26T13:40:32.772Z,39.27
2018-07-26T13:43:01.133Z,37.00
2018-07-26T13:45:29.544Z,37.24
2018-07-26T13:47:57.810Z,38.52
2018-07-26T13:50:26.196Z,38.54
2018-07-26T13:52:54.458Z,40.01
2018-07-26T13:55:22.784Z,38.29
2018-07-26T13:57:51.102Z,38.36
2018-07-26T14:00:19.534Z,37.44
2018-07-26T14:02:47.842Z,38.42
2018-07-26T14:05:16.143Z,38.78
2018-07-26T14:07:44.514Z,39.29
2018-07-26T14:10:12.832Z,39.98
2018-07-26T14:12:41.133Z,39.23
2018-07-26T14:15:10.592Z,38.88
2018-07-26T14:17:39.367Z,38.43
2018-07-26T14:20:09.190Z,39.63
2018-07-26T14:22:38.073Z,39.23
2018-07-26T14:25:06.467Z,40.00
2018-07-26T14:27:34.851Z,41.48
2018-07-26T14:30:03.272Z,41.75
2018-07-26T14:32:31.543Z,41.34
2018-07-26T14:35:00.010Z,43.86
2018-07-26T14:37:28.308Z,41.30
2018-07-26T14:39:56.583Z,40.07
2018-07-26T14:42:25.121Z,39.83
2018-07-26T14:44:53.447Z,40.42
2018-07-26T14:47:21.707Z,41.77
2018-07-26T14:49:50.027Z,40.53
2018-07-26T14:52:18.306Z,41.90
2018-07-26T14:54:46.598Z,42.22
2018-07-26T14:57:14.995Z,42.27
2018-07-26T14:59:43.584Z,43.30
2018-07-26T15:02:12.332Z,43.90
2018-07-26T15:04:40.599Z,42.48
2018-07-26T15:07:08.977Z,41.14
2018-07-26T15:09:37.429Z,41.23
2018-07-26T15:12:05.937Z,41.23
2018-07-26T15:14:34.402Z,42.19
2018-07-26T15:17:02.736Z,41.91
2018-07-26T15:19:31.166Z,42.26
2018-07-26T15:21:59.436Z,42.26
2018-07-26T15:24:28.712Z,42.30
2018-07-26T15:26:57.015Z,41.12
2018-07-26T15:29:25.333Z,41.68
2018-07-26T15:31:54.016Z,42.61
2018-07-26T15:34:22.292Z,42.87
2018-07-26T15:36:50.634Z,43.35
2018-07-26T15:39:19.186Z,42.78
2018-07-26T15:41:47.462Z,42.04
2018-07-26T15:44:16.721Z,42.74
2018-07-26T15:46:45.304Z,42.63
2018-07-26T15:49:13.598Z,42.59
2018-07-26T15:51:42.179Z,41.73
2018-07-26T15:54:10.703Z,42.08
2018-07-26T15:56:38.978Z,43.38
2018-07-26T15:59:07.254Z,42.93
2018-07-26T16:01:35.674Z,42.27
2018-07-26T16:04:04.155Z,42.83
2018-07-26T16:06:32.467Z,42.41
2018-07-26T16:09:00.802Z,41.63
2018-07-26T16:11:29.115Z,42.44
2018-07-26T16:13:57.437Z,42.16
2018-07-26T16:16:25.784Z,43.40
2018-07-26T16:18:54.227Z,41.40
2018-07-26T16:21:22.524Z,41.53
2018-07-26T16:23:50.822Z,42.68
2018-07-26T16:26:19.194Z,41.08
2018-07-26T16:28:47.614Z,41.18
2018-07-26T16:31:22.806Z,42.90
2018-07-26T16:33:51.606Z,42.45
2018-07-26T16:36:19.927Z,42.61
2018-07-26T16:38:48.718Z,41.34
2018-07-26T16:41:17.190Z,41.82
2018-07-26T16:43:45.476Z,41.70
2018-07-26T16:46:13.813Z,41.54
2018-07-26T16:48:42.331Z,42.01
2018-07-26T16:51:10.704Z,41.42
2018-07-26T16:53:39.785Z,43.64
2018-07-26T16:56:08.495Z,42.95
2018-07-26T16:58:36.936Z,41.66
2018-07-26T17:01:05.133Z,41.45
2018-07-26T17:03:33.482Z,40.82
2018-07-26T17:06:01.857Z,40.16
2018-07-26T17:08:30.287Z,40.67
2018-07-26T17:10:58.682Z,40.88
2018-07-26T17:13:27.996Z,41.40
2018-07-26T17:15:56.348Z,41.22
2018-07-26T17:18:24.613Z,41.55
2018-07-26T17:20:52.893Z,41.17
2018-07-26T17:23:21.278Z,41.03
2018-07-26T17:25:49.572Z,39.98
2018-07-26T17:28:18.889Z,40.35
2018-07-26T17:30:47.283Z,40.09
2018-07-26T17:33:15.563Z,40.38
2018-07-26T17:35:43.964Z,40.18
2018-07-26T17:38:12.211Z,40.89
2018-07-26T17:40:40.896Z,40.55
2018-07-26T17:43:09.212Z,39.97
2018-07-26T17:45:37.597Z,39.72
2018-07-26T17:48:06.626Z,39.63
2018-07-26T17:50:34.937Z,39.45
2018-07-26T17:53:03.430Z,39.58
2018-07-26T17:55:31.831Z,39.91
2018-07-26T17:58:00.123Z,39.41
2018-07-26T18:00:28.545Z,38.98
2018-07-26T18:02:56.868Z,39.27
2018-07-26T18:05:25.230Z,38.85
2018-07-26T18:07:53.602Z,38.86
2018-07-26T18:10:22.177Z,38.57
2018-07-26T18:12:50.457Z,38.16
2018-07-26T18:15:18.806Z,38.56
2018-07-26T18:17:47.374Z,37.78
2018-07-26T18:20:15.847Z,37.63
2018-07-26T18:22:44.121Z,36.94
2018-07-26T18:25:12.440Z,36.22
2018-07-26T18:27:40.838Z,35.97
2018-07-26T18:30:09.460Z,35.47
2018-07-26T18:32:37.813Z,35.14
2018-07-26T18:35:06.584Z,35.11
2018-07-26T18:37:34.964Z,34.84
2018-07-26T18:40:03.591Z,34.43
2018-07-26T18:42:31.895Z,34.47
2018-07-26T18:45:00.194Z,34.25
2018-07-26T18:47:30.113Z,34.13
2018-07-26T18:49:58.380Z,34.02
2018-07-26T18:52:26.735Z,33.95
2018-07-26T18:54:55.113Z,33.59
2018-07-26T18:57:23.411Z,33.58
2018-07-26T18:59:51.779Z,33.52
2018-07-26T19:02:20.102Z,33.38
2018-07-26T19:04:48.391Z,33.26
2018-07-26T19:07:16.724Z,33.05
2018-07-26T19:09:45.025Z,32.95
2018-07-26T19:12:13.504Z,32.96
2018-07-26T19:14:41.984Z,32.83
2018-07-26T19:17:10.274Z,32.72
2018-07-26T19:19:39.038Z,32.54
2018-07-26T19:22:07.817Z,32.44
2018-07-26T19:24:36.343Z,32.28
2018-07-26T19:27:05.074Z,32.26
2018-07-26T19:29:33.474Z,32.15
2018-07-26T19:32:01.846Z,32.05
2018-07-26T19:34:30.964Z,32.03
2018-07-26T19:36:59.316Z,32.00
2018-07-26T19:39:27.615Z,31.79
2018-07-26T19:41:55.926Z,31.74
2018-07-26T19:44:24.387Z,31.60
2018-07-26T19:46:52.736Z,31.47
2018-07-26T19:49:21.532Z,31.39
2018-07-26T19:51:49.895Z,31.41
2018-07-26T19:54:18.290Z,31.35
2018-07-26T19:56:47.049Z,31.13
2018-07-26T19:59:15.438Z,31.05
2018-07-26T20:01:44.015Z,30.91
2018-07-26T20:04:12.714Z,30.85
2018-07-26T20:06:40.988Z,30.79
2018-07-26T20:09:10.126Z,30.68
2018-07-26T20:11:38.740Z,30.54
2018-07-26T20:14:08.103Z,30.45
2018-07-26T20:16:36.538Z,30.40
2018-07-26T20:19:04.990Z,30.43
2018-07-26T20:21:33.303Z,30.37
2018-07-26T20:24:01.629Z,30.20
2018-07-26T20:26:29.900Z,30.13
2018-07-26T20:28:58.584Z,30.12
2018-07-26T20:31:27.699Z,30.00
2018-07-26T20:33:55.977Z,30.04
2018-07-26T20:36:24.369Z,29.94
2018-07-26T20:38:52.685Z,29.91
2018-07-26T20:41:21.352Z,29.77
2018-07-26T20:43:49.669Z,29.80
2018-07-26T20:46:18.218Z,29.66
2018-07-26T20:48:46.519Z,29.55
2018-07-26T20:51:14.820Z,29.46
2018-07-26T20:53:43.146Z,29.38
2018-07-26T20:56:11.433Z,29.26
2018-07-26T20:58:39.758Z,29.17
2018-07-26T21:01:08.035Z,29.23
2018-07-26T21:03:36.533Z,29.19
2018-07-26T21:06:05.434Z,29.06
2018-07-26T21:08:35.561Z,29.02
2018-07-26T21:11:03.906Z,28.91
2018-07-26T21:13:33.114Z,29.09
2018-07-26T21:16:01.654Z,28.95
2018-07-26T21:18:30.256Z,28.85
2018-07-26T21:20:58.748Z,28.72
2018-07-26T21:23:27.068Z,28.65
2018-07-26T21:25:55.374Z,28.63
2018-07-26T21:28:23.708Z,28.68
2018-07-26T21:30:52.083Z,28.65
2018-07-26T21:33:20.374Z,28.62
2018-07-26T21:35:48.678Z,28.55
2018-07-26T21:38:17.005Z,28.47
2018-07-26T21:40:45.347Z,28.43
2018-07-26T21:43:13.691Z,28.43
2018-07-26T21:45:41.983Z,28.36
2018-07-26T21:48:10.290Z,28.41
2018-07-26T21:50:38.635Z,28.22
2018-07-26T21:53:07.040Z,28.22
2018-07-26T21:55:35.394Z,28.18
2018-07-26T21:58:04.010Z,28.07
2018-07-26T22:00:43.194Z,28.02
2018-07-26T22:03:11.753Z,28.12
2018-07-26T22:05:40.229Z,27.93
2018-07-26T22:08:08.635Z,27.94
2018-07-26T22:10:36.916Z,27.88
2018-07-26T22:13:05.299Z,27.88
2018-07-26T22:15:33.581Z,27.86
2018-07-26T22:18:01.865Z,27.71
2018-07-26T22:20:30.291Z,27.69
2018-07-26T22:22:58.577Z,27.63
2018-07-26T22:25:26.940Z,27.71
2018-07-26T22:27:55.238Z,27.67
2018-07-26T22:30:23.598Z,27.64
2018-07-26T22:32:52.086Z,27.46
2018-07-26T22:35:20.367Z,27.19
2018-07-26T22:37:48.692Z,27.08
2018-07-26T22:40:16.991Z,26.91
2018-07-26T22:42:45.271Z,26.88
2018-07-26T22:45:13.876Z,26.80
2018-07-26T22:47:42.190Z,26.78
2018-07-26T22:50:10.544Z,26.71
2018-07-26T22:52:38.852Z,26.61
2018-07-26T22:55:07.684Z,26.53
2018-07-26T22:57:35.991Z,26.55
2018-07-26T23:00:05.026Z,26.44
2018-07-26T23:02:34.267Z,26.36
2018-07-26T23:05:02.584Z,26.30
2018-07-26T23:07:30.973Z,26.30
2018-07-26T23:09:59.329Z,26.44
2018-07-26T23:12:27.751Z,26.51
2018-07-26T23:14:56.095Z,26.74
2018-07-26T23:17:25.183Z,26.61
2018-07-26T23:19:53.463Z,26.54
2018-07-26T23:22:21.781Z,26.58
2018-07-26T23:24:50.060Z,26.45
2018-07-26T23:27:18.458Z,26.42
2018-07-26T23:29:46.794Z,26.25
2018-07-26T23:32:15.100Z,26.10
2018-07-26T23:34:43.447Z,25.93
2018-07-26T23:37:12.159Z,25.86
2018-07-26T23:39:40.860Z,25.79
2018-07-26T23:42:09.129Z,25.75
2018-07-26T23:44:37.453Z,25.70
2018-07-26T23:47:06.241Z,25.63
2018-07-26T23:49:34.945Z,25.62
2018-07-26T23:52:03.361Z,25.75
2018-07-26T23:54:31.638Z,26.03
2018-07-26T23:56:59.914Z,25.79
2018-07-26T23:59:28.251Z,25.66
